sensor_id;sensor_type;location;lat;lon;timestamp;pressure;altitude;pressure_sealevel;temperature;humidity
2761;BME280;15420;48.636;9.798;2022-12-29T00:01:16;96333.13;;;9.08;86.27
2761;BME280;15420;48.636;9.798;2022-12-29T00:03:44;96339.19;;;9.12;87.28
2761;BME280;15420;48.636;9.798;2022-12-29T00:06:16;96326.31;;;9.10;87.06
2761;BME280;15420;48.636;9.798;2022-12-29T00:08:45;96314.38;;;9.12;85.76
2761;BME280;15420;48.636;9.798;2022-12-29T00:11:20;96310.22;;;9.19;86.18
2761;BME280;15420;48.636;9.798;2022-12-29T00:13:49;96305.84;;;9.15;86.09
2761;BME280;15420;48.636;9.798;2022-12-29T00:16:41;96304.19;;;9.18;85.76
2761;BME280;15420;48.636;9.798;2022-12-29T00:19:08;96301.63;;;9.18;86.19
2761;BME280;15420;48.636;9.798;2022-12-29T00:21:57;96305.09;;;9.21;85.25
2761;BME280;15420;48.636;9.798;2022-12-29T00:24:43;96299.09;;;9.20;85.08
2761;BME280;15420;48.636;9.798;2022-12-29T00:27:38;96299.16;;;9.23;86.05
2761;BME280;15420;48.636;9.798;2022-12-29T00:30:26;96290.59;;;9.24;86.24
2761;BME280;15420;48.636;9.798;2022-12-29T00:33:16;96289.75;;;9.25;86.00
2761;BME280;15420;48.636;9.798;2022-12-29T00:38:42;96287.25;;;9.30;86.67
2761;BME280;15420;48.636;9.798;2022-12-29T00:41:27;96292.47;;;9.33;86.05
2761;BME280;15420;48.636;9.798;2022-12-29T00:44:13;96281.31;;;9.32;85.82
2761;BME280;15420;48.636;9.798;2022-12-29T00:46:41;96281.38;;;9.35;85.68
2761;BME280;15420;48.636;9.798;2022-12-29T00:49:12;96289.19;;;9.43;86.75
2761;BME280;15420;48.636;9.798;2022-12-29T00:52:08;96278.84;;;9.40;86.21
2761;BME280;15420;48.636;9.798;2022-12-29T00:54:37;96285.75;;;9.42;85.91
2761;BME280;15420;48.636;9.798;2022-12-29T00:57:05;96286.63;;;9.44;86.07
2761;BME280;15420;48.636;9.798;2022-12-29T00:59:34;96292.66;;;9.46;86.52
2761;BME280;15420;48.636;9.798;2022-12-29T01:02:02;96296.13;;;9.48;86.61
2761;BME280;15420;48.636;9.798;2022-12-29T01:04:28;96291.00;;;9.50;86.50
2761;BME280;15420;48.636;9.798;2022-12-29T01:06:54;96289.34;;;9.52;87.33
2761;BME280;15420;48.636;9.798;2022-12-29T01:09:20;96293.63;;;9.53;86.44
2761;BME280;15420;48.636;9.798;2022-12-29T01:12:06;96275.63;;;9.53;85.67
2761;BME280;15420;48.636;9.798;2022-12-29T01:14:38;96288.53;;;9.56;86.77
2761;BME280;15420;48.636;9.798;2022-12-29T01:17:05;96283.44;;;9.58;86.48
2761;BME280;15420;48.636;9.798;2022-12-29T01:19:31;96280.84;;;9.58;86.70
2761;BME280;15420;48.636;9.798;2022-12-29T01:22:00;96278.31;;;9.59;86.85
2761;BME280;15420;48.636;9.798;2022-12-29T01:24:26;96281.75;;;9.60;86.50
2761;BME280;15420;48.636;9.798;2022-12-29T01:26:55;96274.91;;;9.60;86.60
2761;BME280;15420;48.636;9.798;2022-12-29T01:29:21;96277.44;;;9.59;86.71
2761;BME280;15420;48.636;9.798;2022-12-29T01:31:48;96280.91;;;9.61;86.05
2761;BME280;15420;48.636;9.798;2022-12-29T01:34:16;96280.88;;;9.59;86.75
2761;BME280;15420;48.636;9.798;2022-12-29T01:36:43;96280.03;;;9.60;87.24
2761;BME280;15420;48.636;9.798;2022-12-29T01:39:10;96288.63;;;9.61;87.30
2761;BME280;15420;48.636;9.798;2022-12-29T01:41:39;96283.47;;;9.61;86.94
2761;BME280;15420;48.636;9.798;2022-12-29T01:47:35;96290.34;;;9.62;88.19
2761;BME280;15420;48.636;9.798;2022-12-29T01:53:11;96279.25;;;9.64;87.92
2761;BME280;15420;48.636;9.798;2022-12-29T01:55:54;96286.13;;;9.65;88.77
2761;BME280;15420;48.636;9.798;2022-12-29T01:58:24;96282.66;;;9.63;87.04
2761;BME280;15420;48.636;9.798;2022-12-29T02:00:53;96278.38;;;9.62;87.30
2761;BME280;15420;48.636;9.798;2022-12-29T02:03:23;96285.25;;;9.65;88.64
2761;BME280;15420;48.636;9.798;2022-12-29T02:08:34;96281.81;;;9.64;87.96
2761;BME280;15420;48.636;9.798;2022-12-29T02:11:01;96285.28;;;9.66;87.38
2761;BME280;15420;48.636;9.798;2022-12-29T02:13:30;96275.03;;;9.68;87.23
2761;BME280;15420;48.636;9.798;2022-12-29T02:27:35;96281.97;;;9.73;85.78
2761;BME280;15420;48.636;9.798;2022-12-29T02:41:13;96277.66;;;9.71;85.15
2761;BME280;15420;48.636;9.798;2022-12-29T02:46:49;96281.09;;;9.71;85.20
2761;BME280;15420;48.636;9.798;2022-12-29T02:52:02;96272.53;;;9.74;85.80
2761;BME280;15420;48.636;9.798;2022-12-29T02:54:32;96271.66;;;9.72;85.91
2761;BME280;15420;48.636;9.798;2022-12-29T03:00:01;96270.78;;;9.71;85.35
2761;BME280;15420;48.636;9.798;2022-12-29T03:07:42;96270.78;;;9.71;84.57
2761;BME280;15420;48.636;9.798;2022-12-29T03:19:10;96255.28;;;9.67;83.96
2761;BME280;15420;48.636;9.798;2022-12-29T03:21:49;96247.56;;;9.67;83.77
2761;BME280;15420;48.636;9.798;2022-12-29T03:24:41;96251.00;;;9.67;84.00
2761;BME280;15420;48.636;9.798;2022-12-29T03:27:14;96248.44;;;9.67;84.30
2761;BME280;15420;48.636;9.798;2022-12-29T03:29:58;96253.56;;;9.67;83.86
2761;BME280;15420;48.636;9.798;2022-12-29T03:32:34;96251.81;;;9.65;83.43
2761;BME280;15420;48.636;9.798;2022-12-29T03:35:06;96258.72;;;9.67;83.05
2761;BME280;15420;48.636;9.798;2022-12-29T03:37:42;96259.63;;;9.69;83.73
2761;BME280;15420;48.636;9.798;2022-12-29T03:40:13;96251.00;;;9.67;84.09
2761;BME280;15420;48.636;9.798;2022-12-29T03:42:44;96262.19;;;9.69;84.61
2761;BME280;15420;48.636;9.798;2022-12-29T03:45:10;96250.16;;;9.68;83.85
2761;BME280;15420;48.636;9.798;2022-12-29T03:47:36;96245.00;;;9.67;83.14
2761;BME280;15420;48.636;9.798;2022-12-29T03:50:02;96245.88;;;9.69;83.73
2761;BME280;15420;48.636;9.798;2022-12-29T03:52:29;96243.31;;;9.69;83.20
2761;BME280;15420;48.636;9.798;2022-12-29T03:54:55;96233.88;;;9.68;83.60
2761;BME280;15420;48.636;9.798;2022-12-29T03:57:21;96237.31;;;9.68;83.36
2761;BME280;15420;48.636;9.798;2022-12-29T03:59:49;96234.75;;;9.70;83.60
2761;BME280;15420;48.636;9.798;2022-12-29T04:02:20;96239.00;;;9.68;82.51
2761;BME280;15420;48.636;9.798;2022-12-29T04:04:46;96241.59;;;9.69;82.16
2761;BME280;15420;48.636;9.798;2022-12-29T04:07:12;96236.41;;;9.66;82.27
2761;BME280;15420;48.636;9.798;2022-12-29T04:09:38;96235.56;;;9.66;82.94
2761;BME280;15420;48.636;9.798;2022-12-29T04:12:04;96233.81;;;9.65;82.07
2761;BME280;15420;48.636;9.798;2022-12-29T04:14:30;96238.97;;;9.65;82.23
2761;BME280;15420;48.636;9.798;2022-12-29T04:16:56;96244.09;;;9.63;81.59
2761;BME280;15420;48.636;9.798;2022-12-29T04:19:25;96238.91;;;9.62;82.24
2761;BME280;15420;48.636;9.798;2022-12-29T04:21:52;96221.75;;;9.61;81.75
2761;BME280;15420;48.636;9.798;2022-12-29T04:24:19;96225.16;;;9.60;82.36
2761;BME280;15420;48.636;9.798;2022-12-29T04:26:50;96224.31;;;9.59;82.56
2761;BME280;15420;48.636;9.798;2022-12-29T04:29:16;96211.44;;;9.59;83.08
2761;BME280;15420;48.636;9.798;2022-12-29T04:31:42;96216.59;;;9.59;82.13
2761;BME280;15420;48.636;9.798;2022-12-29T04:34:10;96215.69;;;9.57;81.23
2761;BME280;15420;48.636;9.798;2022-12-29T04:36:39;96218.28;;;9.57;81.82
2761;BME280;15420;48.636;9.798;2022-12-29T04:39:06;96232.84;;;9.57;81.74
2761;BME280;15420;48.636;9.798;2022-12-29T04:41:32;96231.09;;;9.54;81.24
2761;BME280;15420;48.636;9.798;2022-12-29T04:44:03;96226.75;;;9.51;80.88
2761;BME280;15420;48.636;9.798;2022-12-29T04:46:30;96237.00;;;9.50;81.19
2761;BME280;15420;48.636;9.798;2022-12-29T04:48:56;96236.09;;;9.46;81.55
2761;BME280;15420;48.636;9.798;2022-12-29T04:51:22;96242.06;;;9.44;81.03
2761;BME280;15420;48.636;9.798;2022-12-29T04:53:50;96248.88;;;9.42;80.56
2761;BME280;15420;48.636;9.798;2022-12-29T04:56:19;96259.09;;;9.37;81.21
2761;BME280;15420;48.636;9.798;2022-12-29T04:58:45;96253.00;;;9.31;82.83
2761;BME280;15420;48.636;9.798;2022-12-29T05:01:13;96251.19;;;9.25;82.45
2761;BME280;15420;48.636;9.798;2022-12-29T05:03:42;96253.66;;;9.19;83.41
2761;BME280;15420;48.636;9.798;2022-12-29T05:06:10;96246.72;;;9.13;83.83
2761;BME280;15420;48.636;9.798;2022-12-29T05:08:36;96240.59;;;9.07;84.72
2761;BME280;15420;48.636;9.798;2022-12-29T05:11:05;96239.56;;;8.97;84.01
2761;BME280;15420;48.636;9.798;2022-12-29T05:13:31;96232.59;;;8.92;84.51
2761;BME280;15420;48.636;9.798;2022-12-29T05:15:57;96229.19;;;8.93;85.19
2761;BME280;15420;48.636;9.798;2022-12-29T05:18:23;96231.69;;;8.88;83.77
2761;BME280;15420;48.636;9.798;2022-12-29T05:20:49;96235.22;;;8.93;83.48
2761;BME280;15420;48.636;9.798;2022-12-29T05:23:24;96234.31;;;8.91;84.15
2761;BME280;15420;48.636;9.798;2022-12-29T05:25:50;96235.19;;;8.92;82.79
2761;BME280;15420;48.636;9.798;2022-12-29T05:28:16;96247.94;;;8.87;82.92
2761;BME280;15420;48.636;9.798;2022-12-29T05:30:42;96244.50;;;8.87;82.88
2761;BME280;15420;48.636;9.798;2022-12-29T05:33:11;96244.50;;;8.87;84.11
2761;BME280;15420;48.636;9.798;2022-12-29T05:35:37;96253.03;;;8.84;83.63
2761;BME280;15420;48.636;9.798;2022-12-29T05:38:03;96270.09;;;8.82;84.16
2761;BME280;15420;48.636;9.798;2022-12-29T05:40:29;96271.75;;;8.78;84.47
2761;BME280;15420;48.636;9.798;2022-12-29T05:42:58;96275.09;;;8.74;84.26
2761;BME280;15420;48.636;9.798;2022-12-29T05:45:26;96279.25;;;8.68;84.76
2761;BME280;15420;48.636;9.798;2022-12-29T05:47:52;96269.81;;;8.67;84.82
2761;BME280;15420;48.636;9.798;2022-12-29T05:50:22;96266.25;;;8.60;85.64
2761;BME280;15420;48.636;9.798;2022-12-29T05:52:48;96264.47;;;8.58;86.24
2761;BME280;15420;48.636;9.798;2022-12-29T05:55:18;96263.66;;;8.59;85.94
2761;BME280;15420;48.636;9.798;2022-12-29T05:57:47;96247.38;;;8.58;86.45
2761;BME280;15420;48.636;9.798;2022-12-29T06:00:16;96243.84;;;8.53;86.82
2761;BME280;15420;48.636;9.798;2022-12-29T06:02:44;96253.25;;;8.52;86.72
2761;BME280;15420;48.636;9.798;2022-12-29T06:05:10;96245.56;;;8.52;87.01
2761;BME280;15420;48.636;9.798;2022-12-29T06:07:39;96250.63;;;8.49;86.93
2761;BME280;15420;48.636;9.798;2022-12-29T06:10:06;96254.84;;;8.46;87.74
2761;BME280;15420;48.636;9.798;2022-12-29T06:12:32;96254.78;;;8.43;87.44
2761;BME280;15420;48.636;9.798;2022-12-29T06:15:01;96258.09;;;8.39;87.04
2761;BME280;15420;48.636;9.798;2022-12-29T06:17:29;96260.50;;;8.31;86.87
2761;BME280;15420;48.636;9.798;2022-12-29T06:19:55;96240.81;;;8.30;87.63
2761;BME280;15420;48.636;9.798;2022-12-29T06:22:25;96230.47;;;8.26;88.25
2761;BME280;15420;48.636;9.798;2022-12-29T06:24:54;96226.22;;;8.28;87.45
2761;BME280;15420;48.636;9.798;2022-12-29T06:27:20;96230.56;;;8.30;88.29
2761;BME280;15420;48.636;9.798;2022-12-29T06:29:46;96236.56;;;8.31;87.91
2761;BME280;15420;48.636;9.798;2022-12-29T06:32:12;96224.59;;;8.31;86.85
2761;BME280;15420;48.636;9.798;2022-12-29T06:34:42;96226.22;;;8.28;87.29
2761;BME280;15420;48.636;9.798;2022-12-29T06:37:11;96217.63;;;8.26;88.38
2761;BME280;15420;48.636;9.798;2022-12-29T06:39:38;96221.88;;;8.24;88.22
2761;BME280;15420;48.636;9.798;2022-12-29T06:42:04;96227.06;;;8.27;88.07
2761;BME280;15420;48.636;9.798;2022-12-29T06:44:32;96213.44;;;8.31;88.95
2761;BME280;15420;48.636;9.798;2022-12-29T06:46:58;96206.59;;;8.30;89.04
2761;BME280;15420;48.636;9.798;2022-12-29T06:49:24;96211.81;;;8.34;89.47
2761;BME280;15420;48.636;9.798;2022-12-29T06:51:50;96219.50;;;8.34;90.45
2761;BME280;15420;48.636;9.798;2022-12-29T06:54:16;96222.94;;;8.35;90.38
2761;BME280;15420;48.636;9.798;2022-12-29T06:56:43;96209.31;;;8.37;90.41
2761;BME280;15420;48.636;9.798;2022-12-29T06:59:10;96214.50;;;8.40;89.80
2761;BME280;15420;48.636;9.798;2022-12-29T07:01:36;96219.63;;;8.40;89.74
2761;BME280;15420;48.636;9.798;2022-12-29T07:04:04;96231.75;;;8.47;90.15
2761;BME280;15420;48.636;9.798;2022-12-29T07:06:30;96232.59;;;8.46;90.09
2761;BME280;15420;48.636;9.798;2022-12-29T07:08:56;96230.91;;;8.47;90.39
2761;BME280;15420;48.636;9.798;2022-12-29T07:11:23;96241.19;;;8.48;89.70
2761;BME280;15420;48.636;9.798;2022-12-29T07:13:49;96236.94;;;8.49;89.77
2761;BME280;15420;48.636;9.798;2022-12-29T07:16:16;96236.97;;;8.50;88.85
2761;BME280;15420;48.636;9.798;2022-12-29T07:18:42;96233.53;;;8.50;89.38
2761;BME280;15420;48.636;9.798;2022-12-29T07:21:08;96240.38;;;8.51;88.54
2761;BME280;15420;48.636;9.798;2022-12-29T07:23:34;96241.25;;;8.51;87.51
2761;BME280;15420;48.636;9.798;2022-12-29T07:26:02;96243.00;;;8.52;88.55
2761;BME280;15420;48.636;9.798;2022-12-29T07:28:32;96249.84;;;8.53;88.72
2761;BME280;15420;48.636;9.798;2022-12-29T07:30:59;96240.44;;;8.54;88.52
2761;BME280;15420;48.636;9.798;2022-12-29T07:33:27;96235.28;;;8.52;88.17
2761;BME280;15420;48.636;9.798;2022-12-29T07:35:55;96244.72;;;8.53;88.28
2761;BME280;15420;48.636;9.798;2022-12-29T07:38:23;96235.31;;;8.54;88.68
2761;BME280;15420;48.636;9.798;2022-12-29T07:40:55;96250.69;;;8.52;88.66
2761;BME280;15420;48.636;9.798;2022-12-29T07:43:24;96250.69;;;8.52;88.73
2761;BME280;15420;48.636;9.798;2022-12-29T07:45:50;96248.16;;;8.54;89.10
2761;BME280;15420;48.636;9.798;2022-12-29T07:48:19;96254.13;;;8.53;88.58
2761;BME280;15420;48.636;9.798;2022-12-29T07:50:48;96242.13;;;8.52;90.47
2761;BME280;15420;48.636;9.798;2022-12-29T07:53:14;96234.44;;;8.53;90.86
2761;BME280;15420;48.636;9.798;2022-12-29T07:55:49;96245.69;;;8.59;90.72
2761;BME280;15420;48.636;9.798;2022-12-29T07:58:15;96265.34;;;8.58;92.00
2761;BME280;15420;48.636;9.798;2022-12-29T08:00:41;96261.13;;;8.60;92.63
2761;BME280;15420;48.636;9.798;2022-12-29T08:03:09;96265.44;;;8.63;92.65
2761;BME280;15420;48.636;9.798;2022-12-29T08:05:39;96263.78;;;8.65;92.17
2761;BME280;15420;48.636;9.798;2022-12-29T08:08:05;96256.09;;;8.66;92.16
2761;BME280;15420;48.636;9.798;2022-12-29T08:10:35;96258.69;;;8.68;91.62
2761;BME280;15420;48.636;9.798;2022-12-29T08:13:04;96263.03;;;8.70;91.41
2761;BME280;15420;48.636;9.798;2022-12-29T08:15:30;96271.63;;;8.72;92.08
2761;BME280;15420;48.636;9.798;2022-12-29T08:18:03;96274.25;;;8.75;90.87
2761;BME280;15420;48.636;9.798;2022-12-29T08:20:29;96282.00;;;8.77;91.62
2761;BME280;15420;48.636;9.798;2022-12-29T08:22:55;96294.88;;;8.78;90.66
2761;BME280;15420;48.636;9.798;2022-12-29T08:25:21;96290.59;;;8.79;92.11
2761;BME280;15420;48.636;9.798;2022-12-29T08:27:47;96283.81;;;8.82;91.86
2761;BME280;15420;48.636;9.798;2022-12-29T08:30:17;96288.19;;;8.87;91.60
2761;BME280;15420;48.636;9.798;2022-12-29T08:32:43;96297.63;;;8.88;91.55
2761;BME280;15420;48.636;9.798;2022-12-29T08:35:09;96289.97;;;8.91;91.15
2761;BME280;15420;48.636;9.798;2022-12-29T08:37:39;96275.50;;;8.96;91.87
2761;BME280;15420;48.636;9.798;2022-12-29T08:40:06;96287.53;;;8.98;92.29
2761;BME280;15420;48.636;9.798;2022-12-29T08:42:32;96284.31;;;9.08;92.28
2761;BME280;15420;48.636;9.798;2022-12-29T08:45:07;96275.75;;;9.09;92.49
2761;BME280;15420;48.636;9.798;2022-12-29T08:47:34;96280.19;;;9.16;91.00
2761;BME280;15420;48.636;9.798;2022-12-29T08:50:04;96281.97;;;9.21;91.30
2761;BME280;15420;48.636;9.798;2022-12-29T08:52:30;96276.91;;;9.25;90.73
2761;BME280;15420;48.636;9.798;2022-12-29T08:55:07;96278.81;;;9.38;90.22
2761;BME280;15420;48.636;9.798;2022-12-29T08:57:39;96280.69;;;9.47;90.41
2761;BME280;15420;48.636;9.798;2022-12-29T09:00:07;96285.06;;;9.52;90.34
2761;BME280;15420;48.636;9.798;2022-12-29T09:02:43;96290.31;;;9.59;91.07
2761;BME280;15420;48.636;9.798;2022-12-29T09:05:12;96282.63;;;9.62;91.03
2761;BME280;15420;48.636;9.798;2022-12-29T09:07:39;96291.28;;;9.65;89.94
2761;BME280;15420;48.636;9.798;2022-12-29T09:10:05;96295.69;;;9.74;90.10
2761;BME280;15420;48.636;9.798;2022-12-29T09:12:35;96291.53;;;9.80;90.48
2761;BME280;15420;48.636;9.798;2022-12-29T09:15:01;96292.47;;;9.86;90.50
2761;BME280;15420;48.636;9.798;2022-12-29T09:17:31;96294.25;;;9.90;89.81
2761;BME280;15420;48.636;9.798;2022-12-29T09:20:17;96284.03;;;9.96;90.28
2761;BME280;15420;48.636;9.798;2022-12-29T09:22:50;96300.53;;;10.08;90.57
2761;BME280;15420;48.636;9.798;2022-12-29T09:25:17;96285.09;;;10.10;90.10
2761;BME280;15420;48.636;9.798;2022-12-29T09:27:51;96292.00;;;10.11;89.68
2761;BME280;15420;48.636;9.798;2022-12-29T09:30:29;96283.59;;;10.23;90.07
2761;BME280;15420;48.636;9.798;2022-12-29T09:33:02;96287.09;;;10.26;89.86
2761;BME280;15420;48.636;9.798;2022-12-29T09:35:29;96282.88;;;10.31;89.65
2761;BME280;15420;48.636;9.798;2022-12-29T09:38:00;96280.34;;;10.34;90.16
2761;BME280;15420;48.636;9.798;2022-12-29T09:40:31;96285.56;;;10.42;89.87
2761;BME280;15420;48.636;9.798;2022-12-29T09:46:26;96297.69;;;10.51;89.51
2761;BME280;15420;48.636;9.798;2022-12-29T09:51:45;96301.31;;;10.65;90.10
2761;BME280;15420;48.636;9.798;2022-12-29T10:00:23;96291.22;;;10.83;89.39
2761;BME280;15420;48.636;9.798;2022-12-29T10:03:02;96295.56;;;10.86;88.80
2761;BME280;15420;48.636;9.798;2022-12-29T10:08:33;96284.47;;;10.91;88.36
2761;BME280;15420;48.636;9.798;2022-12-29T10:13:51;96270.84;;;11.03;88.16
2761;BME280;15420;48.636;9.798;2022-12-29T10:16:51;96267.47;;;11.10;88.38
2761;BME280;15420;48.636;9.798;2022-12-29T10:25:00;96247.75;;;11.15;87.79
2761;BME280;15420;48.636;9.798;2022-12-29T10:27:32;96248.69;;;11.22;87.69
2761;BME280;15420;48.636;9.798;2022-12-29T10:30:00;96246.13;;;11.23;88.39
2761;BME280;15420;48.636;9.798;2022-12-29T10:32:46;96242.75;;;11.30;87.39
2761;BME280;15420;48.636;9.798;2022-12-29T10:35:22;96241.91;;;11.33;87.42
2761;BME280;15420;48.636;9.798;2022-12-29T10:40:26;96245.44;;;11.41;87.37
2761;BME280;15420;48.636;9.798;2022-12-29T10:42:55;96241.16;;;11.43;87.16
2761;BME280;15420;48.636;9.798;2022-12-29T10:45:28;96240.25;;;11.44;87.52
2761;BME280;15420;48.636;9.798;2022-12-29T10:48:06;96254.91;;;11.48;87.46
2761;BME280;15420;48.636;9.798;2022-12-29T10:50:35;96232.56;;;11.48;87.51
2761;BME280;15420;48.636;9.798;2022-12-29T10:53:04;96252.38;;;11.53;87.70
2761;BME280;15420;48.636;9.798;2022-12-29T10:55:39;96247.22;;;11.54;87.85
2761;BME280;15420;48.636;9.798;2022-12-29T10:58:12;96255.84;;;11.56;87.40
2761;BME280;15420;48.636;9.798;2022-12-29T11:00:43;96238.63;;;11.55;87.03
2761;BME280;15420;48.636;9.798;2022-12-29T11:06:13;96255.88;;;11.58;86.78
2761;BME280;15420;48.636;9.798;2022-12-29T11:08:57;96245.56;;;11.59;87.16
2761;BME280;15420;48.636;9.798;2022-12-29T11:11:34;96251.59;;;11.61;87.56
2761;BME280;15420;48.636;9.798;2022-12-29T11:14:19;96243.88;;;11.66;86.80
2761;BME280;15420;48.636;9.798;2022-12-29T11:17:00;96249.94;;;11.71;88.22
2761;BME280;15420;48.636;9.798;2022-12-29T11:19:29;96242.19;;;11.69;87.79
2761;BME280;15420;48.636;9.798;2022-12-29T11:22:24;96234.56;;;11.78;87.70
2761;BME280;15420;48.636;9.798;2022-12-29T11:24:52;96243.16;;;11.77;87.34
2761;BME280;15420;48.636;9.798;2022-12-29T11:27:24;96236.31;;;11.83;87.38
2761;BME280;15420;48.636;9.798;2022-12-29T11:29:59;96252.69;;;11.88;87.19
2761;BME280;15420;48.636;9.798;2022-12-29T11:32:28;96257.88;;;11.89;87.18
2761;BME280;15420;48.636;9.798;2022-12-29T11:35:02;96245.84;;;11.93;86.95
2761;BME280;15420;48.636;9.798;2022-12-29T11:37:38;96253.66;;;12.02;86.27
2761;BME280;15420;48.636;9.798;2022-12-29T11:40:19;96244.22;;;12.07;86.39
2761;BME280;15420;48.636;9.798;2022-12-29T11:42:56;96250.25;;;12.09;86.01
2761;BME280;15420;48.636;9.798;2022-12-29T11:45:37;96234.81;;;12.17;86.93
2761;BME280;15420;48.636;9.798;2022-12-29T11:48:21;96249.47;;;12.21;86.43
2761;BME280;15420;48.636;9.798;2022-12-29T11:50:55;96246.91;;;12.27;88.21
2761;BME280;15420;48.636;9.798;2022-12-29T11:56:16;96253.00;;;12.36;87.87
2761;BME280;15420;48.636;9.798;2022-12-29T11:58:43;96242.69;;;12.39;87.98
2761;BME280;15420;48.636;9.798;2022-12-29T12:01:32;96249.59;;;12.50;86.61
2761;BME280;15420;48.636;9.798;2022-12-29T12:04:06;96248.75;;;12.48;88.15
2761;BME280;15420;48.636;9.798;2022-12-29T12:06:38;96241.84;;;12.51;88.37
2761;BME280;15420;48.636;9.798;2022-12-29T12:09:51;96240.13;;;12.55;88.19
2761;BME280;15420;48.636;9.798;2022-12-29T12:12:24;96247.03;;;12.54;87.46
2761;BME280;15420;48.636;9.798;2022-12-29T12:15:02;96245.31;;;12.56;87.96
2761;BME280;15420;48.636;9.798;2022-12-29T12:17:50;96238.44;;;12.58;86.40
2761;BME280;15420;48.636;9.798;2022-12-29T12:20:48;96225.53;;;12.64;86.52
2761;BME280;15420;48.636;9.798;2022-12-29T12:26:39;96228.13;;;12.69;87.02
2761;BME280;15420;48.636;9.798;2022-12-29T12:29:54;96222.97;;;12.73;86.53
2761;BME280;15420;48.636;9.798;2022-12-29T12:35:00;96225.56;;;12.73;87.27
2761;BME280;15420;48.636;9.798;2022-12-29T12:46:38;96226.47;;;12.82;86.82
2761;BME280;15420;48.636;9.798;2022-12-29T13:01:11;96225.59;;;12.84;90.06
2761;BME280;15420;48.636;9.798;2022-12-29T13:04:14;96226.47;;;12.85;90.99
2761;BME280;15420;48.636;9.798;2022-12-29T13:10:42;96224.75;;;12.87;92.17
2761;BME280;15420;48.636;9.798;2022-12-29T13:21:22;96230.78;;;12.86;92.79
2761;BME280;15420;48.636;9.798;2022-12-29T13:27:00;96229.94;;;12.90;94.13
2761;BME280;15420;48.636;9.798;2022-12-29T13:29:58;96228.22;;;12.96;93.11
2761;BME280;15420;48.636;9.798;2022-12-29T13:38:21;96225.63;;;12.93;93.24
2761;BME280;15420;48.636;9.798;2022-12-29T13:40:59;96228.22;;;12.95;92.52
2761;BME280;15420;48.636;9.798;2022-12-29T13:43:35;96222.19;;;12.94;92.96
2761;BME280;15420;48.636;9.798;2022-12-29T13:46:16;96233.41;;;12.96;92.49
2761;BME280;15420;48.636;9.798;2022-12-29T13:51:23;96235.13;;;12.96;92.70
2761;BME280;15420;48.636;9.798;2022-12-29T13:54:01;96228.22;;;12.98;93.44
2761;BME280;15420;48.636;9.798;2022-12-29T14:00:21;96234.28;;;13.00;94.49
2761;BME280;15420;48.636;9.798;2022-12-29T14:03:04;96230.81;;;13.01;93.99
2761;BME280;15420;48.636;9.798;2022-12-29T14:05:39;96232.53;;;12.94;94.60
2761;BME280;15420;48.636;9.798;2022-12-29T14:08:11;96222.19;;;12.93;93.75
2761;BME280;15420;48.636;9.798;2022-12-29T14:10:51;96216.16;;;12.97;93.46
2761;BME280;15420;48.636;9.798;2022-12-29T14:13:24;96223.91;;;12.95;92.77
2761;BME280;15420;48.636;9.798;2022-12-29T14:15:55;96209.25;;;12.96;92.75
2761;BME280;15420;48.636;9.798;2022-12-29T14:18:33;96199.78;;;12.98;91.95
2761;BME280;15420;48.636;9.798;2022-12-29T14:21:19;96211.00;;;12.98;92.61
2761;BME280;15420;48.636;9.798;2022-12-29T14:23:57;96217.00;;;12.94;92.53
2761;BME280;15420;48.636;9.798;2022-12-29T14:26:40;96214.44;;;12.96;92.58
2761;BME280;15420;48.636;9.798;2022-12-29T14:34:54;96217.00;;;12.93;91.94
2761;BME280;15420;48.636;9.798;2022-12-29T14:37:32;96206.69;;;12.97;92.54
2761;BME280;15420;48.636;9.798;2022-12-29T14:40:24;96210.13;;;12.98;91.90
2761;BME280;15420;48.636;9.798;2022-12-29T14:42:55;96222.19;;;12.93;92.44
2761;BME280;15420;48.636;9.798;2022-12-29T14:45:26;96217.00;;;12.94;92.27
2761;BME280;15420;48.636;9.798;2022-12-29T14:47:55;96221.31;;;12.94;90.75
2761;BME280;15420;48.636;9.798;2022-12-29T14:50:41;96215.28;;;12.96;91.61
2761;BME280;15420;48.636;9.798;2022-12-29T14:53:49;96217.00;;;12.94;89.95
2761;BME280;15420;48.636;9.798;2022-12-29T14:56:24;96223.91;;;12.88;91.17
2761;BME280;15420;48.636;9.798;2022-12-29T14:58:57;96210.97;;;12.88;89.69
2761;BME280;15420;48.636;9.798;2022-12-29T15:01:38;96223.03;;;12.89;90.13
2761;BME280;15420;48.636;9.798;2022-12-29T15:04:32;96224.75;;;12.90;89.52
2761;BME280;15420;48.636;9.798;2022-12-29T15:07:00;96225.59;;;12.84;90.47
2761;BME280;15420;48.636;9.798;2022-12-29T15:09:34;96229.91;;;12.84;91.30
2761;BME280;15420;48.636;9.798;2022-12-29T15:12:17;96224.75;;;12.84;92.16
2761;BME280;15420;48.636;9.798;2022-12-29T15:14:55;96216.97;;;12.82;91.81
2761;BME280;15420;48.636;9.798;2022-12-29T15:17:32;96224.72;;;12.76;91.11
2761;BME280;15420;48.636;9.798;2022-12-29T15:20:19;96219.53;;;12.73;91.80
2761;BME280;15420;48.636;9.798;2022-12-29T15:23:02;96225.53;;;12.67;92.84
2761;BME280;15420;48.636;9.798;2022-12-29T15:25:32;96228.97;;;12.63;92.10
2761;BME280;15420;48.636;9.798;2022-12-29T15:28:06;96228.09;;;12.58;93.08
2761;BME280;15420;48.636;9.798;2022-12-29T15:30:35;96222.06;;;12.58;91.99
2761;BME280;15420;48.636;9.798;2022-12-29T15:33:01;96227.22;;;12.56;93.47
2761;BME280;15420;48.636;9.798;2022-12-29T15:35:35;96224.63;;;12.50;93.07
2761;BME280;15420;48.636;9.798;2022-12-29T15:38:21;96238.38;;;12.41;93.94
2761;BME280;15420;48.636;9.798;2022-12-29T15:40:56;96232.34;;;12.36;94.79
2761;BME280;15420;48.636;9.798;2022-12-29T15:43:44;96241.78;;;12.31;94.79
2761;BME280;15420;48.636;9.798;2022-12-29T15:46:22;96245.19;;;12.26;94.01
2761;BME280;15420;48.636;9.798;2022-12-29T15:48:48;96238.28;;;12.23;93.54
2761;BME280;15420;48.636;9.798;2022-12-29T15:51:37;96232.22;;;12.17;93.44
2761;BME280;15420;48.636;9.798;2022-12-29T15:54:04;96233.88;;;12.07;93.08
2761;BME280;15420;48.636;9.798;2022-12-29T15:56:35;96243.34;;;12.05;93.56
2761;BME280;15420;48.636;9.798;2022-12-29T15:59:04;96228.66;;;11.98;92.92
2761;BME280;15420;48.636;9.798;2022-12-29T16:01:30;96234.66;;;11.92;93.53
2761;BME280;15420;48.636;9.798;2022-12-29T16:04:05;96238.06;;;11.87;93.77
2761;BME280;15420;48.636;9.798;2022-12-29T16:06:36;96225.97;;;11.81;92.88
2761;BME280;15420;48.636;9.798;2022-12-29T16:11:39;96237.88;;;11.68;93.75
2761;BME280;15420;48.636;9.798;2022-12-29T16:14:12;96241.25;;;11.60;93.81
2761;BME280;15420;48.636;9.798;2022-12-29T16:16:41;96236.06;;;11.54;94.24